Time;durP1;ratioP1;P1;durP2;ratioP2;P2;SDS_P1;SDS_P2;PMS_P1;PMS_P2;Temp;Humidity;BMP_temperature;BMP_pressure;BME280_temperature;BME280_humidity;BME280_pressure;Samples;Min_cycle;Max_cycle;Signal;HPM_P1;HPM_P2
2022/06/03 00:00:46;;;;;;;2.20;2.10;;;;;;;;;;5005258;28;20245;-68
2022/06/03 00:03:15;;;;;;;2.30;2.20;;;;;;;;;;5009216;28;20188;-71
2022/06/03 00:05:44;;;;;;;2.87;2.60;;;;;;;;;;5006893;28;20443;-69
2022/06/03 00:08:14;;;;;;;2.47;2.27;;;;;;;;;;5005961;28;20250;-70
2022/06/03 00:10:56;;;;;;;2.40;2.20;;;;;;;;;;5007242;28;20591;-70
2022/06/03 00:13:42;;;;;;;2.43;2.23;;;;;;;;;;5006528;28;20274;-69
2022/06/03 00:16:25;;;;;;;2.30;2.10;;;;;;;;;;5020358;28;20294;-69
2022/06/03 00:18:54;;;;;;;3.23;3.03;;;;;;;;;;5013664;28;20218;-71
2022/06/03 00:21:38;;;;;;;2.40;2.27;;;;;;;;;;5009429;28;20192;-70
2022/06/03 00:24:13;;;;;;;3.27;2.73;;;;;;;;;;5013190;28;20184;-70
2022/06/03 00:27:03;;;;;;;2.90;2.70;;;;;;;;;;5014235;28;20209;-70
2022/06/03 00:29:38;;;;;;;2.97;2.67;;;;;;;;;;5007345;28;20481;-70
2022/06/03 00:32:13;;;;;;;3.00;2.77;;;;;;;;;;5006823;28;21029;-72
2022/06/03 00:34:57;;;;;;;3.20;2.90;;;;;;;;;;5006897;28;20183;-69
2022/06/03 00:37:46;;;;;;;3.13;2.93;;;;;;;;;;5013034;28;20214;-68
2022/06/03 00:40:31;;;;;;;3.00;2.80;;;;;;;;;;5006935;28;20192;-70
2022/06/03 00:42:57;;;;;;;3.10;2.90;;;;;;;;;;5007132;28;20241;-68
2022/06/03 00:45:28;;;;;;;3.23;2.90;;;;;;;;;;5010341;28;20187;-69
2022/06/03 00:48:00;;;;;;;3.13;2.93;;;;;;;;;;5012031;28;20215;-71
2022/06/03 00:50:43;;;;;;;2.93;2.73;;;;;;;;;;5007630;28;20558;-70
2022/06/03 00:53:09;;;;;;;2.93;2.73;;;;;;;;;;5006694;28;20192;-70
2022/06/03 00:55:37;;;;;;;3.10;2.90;;;;;;;;;;5012134;28;20194;-69
2022/06/03 00:58:03;;;;;;;3.07;2.87;;;;;;;;;;5006352;28;20624;-70
2022/06/03 01:00:49;;;;;;;3.13;2.73;;;;;;;;;;5007801;28;20233;-70
2022/06/03 01:03:31;;;;;;;2.70;2.50;;;;;;;;;;4965031;28;20203;-68
2022/06/03 01:05:59;;;;;;;3.33;3.03;;;;;;;;;;5006009;28;20202;-69
2022/06/03 01:08:32;;;;;;;3.07;2.87;;;;;;;;;;5006699;28;20562;-70
2022/06/03 01:11:04;;;;;;;2.70;2.50;;;;;;;;;;5007296;28;20196;-70
2022/06/03 01:13:36;;;;;;;3.27;2.97;;;;;;;;;;5007476;28;20892;-69
2022/06/03 01:16:23;;;;;;;3.07;2.87;;;;;;;;;;5010180;28;20225;-69
2022/06/03 01:18:52;;;;;;;3.30;3.00;;;;;;;;;;5012526;28;20659;-70
2022/06/03 01:21:18;;;;;;;3.30;3.00;;;;;;;;;;5005904;28;20199;-70
2022/06/03 01:24:04;;;;;;;3.20;3.00;;;;;;;;;;5005893;28;20187;-70
2022/06/03 01:26:36;;;;;;;3.30;3.10;;;;;;;;;;5006505;28;20214;-70
2022/06/03 01:29:05;;;;;;;3.20;2.90;;;;;;;;;;5007925;28;20191;-67
2022/06/03 01:31:31;;;;;;;3.00;2.80;;;;;;;;;;5006387;28;20644;-69
2022/06/03 01:34:00;;;;;;;2.80;2.60;;;;;;;;;;5005250;28;20218;-68
2022/06/03 01:36:45;;;;;;;3.23;3.03;;;;;;;;;;5005762;28;20561;-70
2022/06/03 01:39:23;;;;;;;3.27;2.97;;;;;;;;;;5010917;28;20198;-69
2022/06/03 01:41:51;;;;;;;2.90;2.50;;;;;;;;;;5011888;28;20647;-68
2022/06/03 01:44:20;;;;;;;2.93;2.73;;;;;;;;;;5013230;28;20187;-71
2022/06/03 01:47:06;;;;;;;3.00;2.80;;;;;;;;;;5011807;28;20547;-70
2022/06/03 01:49:50;;;;;;;3.03;2.80;;;;;;;;;;5001467;28;20202;-68
2022/06/03 01:52:16;;;;;;;3.07;2.87;;;;;;;;;;5013951;28;20183;-69
2022/06/03 01:54:45;;;;;;;3.23;2.93;;;;;;;;;;5012426;28;21187;-69
2022/06/03 01:57:14;;;;;;;3.13;2.93;;;;;;;;;;5011680;28;20687;-71
2022/06/03 01:59:40;;;;;;;3.00;2.80;;;;;;;;;;5004403;28;20234;-73
2022/06/03 02:02:18;;;;;;;3.70;3.40;;;;;;;;;;5008726;28;20226;-68
2022/06/03 02:05:03;;;;;;;4.20;3.77;;;;;;;;;;5003357;28;20226;-68
2022/06/03 02:07:38;;;;;;;4.10;3.70;;;;;;;;;;5014040;28;20621;-70
2022/06/03 02:10:16;;;;;;;3.80;3.50;;;;;;;;;;5015645;28;20191;-70
2022/06/03 02:12:45;;;;;;;3.97;3.67;;;;;;;;;;5005062;28;20209;-70
2022/06/03 02:15:32;;;;;;;3.43;3.13;;;;;;;;;;5004513;28;20242;-68
2022/06/03 02:18:17;;;;;;;5.93;3.77;;;;;;;;;;5010275;28;20207;-70
2022/06/03 02:21:01;;;;;;;4.30;4.00;;;;;;;;;;5004712;28;20639;-70
2022/06/03 02:23:46;;;;;;;4.70;4.30;;;;;;;;;;5005206;28;20584;-73
2022/06/03 02:26:12;;;;;;;4.53;4.13;;;;;;;;;;5004545;28;20246;-68
2022/06/03 02:28:47;;;;;;;3.83;3.53;;;;;;;;;;4987377;28;20309;-68
2022/06/03 02:31:37;;;;;;;4.10;3.80;;;;;;;;;;5004129;28;20190;-69
2022/06/03 02:34:12;;;;;;;4.40;4.00;;;;;;;;;;5009235;28;20187;-70
2022/06/03 02:37:04;;;;;;;3.90;3.60;;;;;;;;;;5004105;28;20199;-71
2022/06/03 02:39:49;;;;;;;4.60;4.20;;;;;;;;;;5005137;28;20246;-68
2022/06/03 02:42:30;;;;;;;4.70;4.20;;;;;;;;;;5007705;28;20203;-69
2022/06/03 02:45:08;;;;;;;4.23;3.83;;;;;;;;;;5005459;28;20188;-71
2022/06/03 02:47:53;;;;;;;4.77;4.37;;;;;;;;;;4995273;28;20719;-66
2022/06/03 02:50:22;;;;;;;4.60;4.20;;;;;;;;;;5009185;28;20186;-71
2022/06/03 02:53:00;;;;;;;4.03;3.50;;;;;;;;;;5004682;28;20267;-69
2022/06/03 02:55:26;;;;;;;4.10;3.77;;;;;;;;;;5004016;28;20183;-70
2022/06/03 02:57:52;;;;;;;4.43;4.03;;;;;;;;;;5004064;28;20211;-70
2022/06/03 03:00:20;;;;;;;3.80;3.50;;;;;;;;;;5004521;28;20199;-68
2022/06/03 03:02:51;;;;;;;4.03;3.73;;;;;;;;;;5004447;28;20294;-68
2022/06/03 03:05:22;;;;;;;5.60;4.30;;;;;;;;;;5006894;28;20278;-67
2022/06/03 03:07:52;;;;;;;4.27;3.87;;;;;;;;;;5004078;28;20619;-71
2022/06/03 03:10:36;;;;;;;4.67;4.27;;;;;;;;;;5004439;28;20210;-71
2022/06/03 03:13:08;;;;;;;3.70;3.40;;;;;;;;;;5005573;28;20321;-69
2022/06/03 03:15:53;;;;;;;4.30;3.90;;;;;;;;;;5005805;28;20648;-70
2022/06/03 03:18:22;;;;;;;4.20;3.80;;;;;;;;;;5003970;28;20209;-69
2022/06/03 03:21:14;;;;;;;4.80;4.10;;;;;;;;;;5004012;28;20223;-72
2022/06/03 03:23:49;;;;;;;4.07;3.67;;;;;;;;;;4999526;28;20557;-70
2022/06/03 03:26:19;;;;;;;4.43;4.00;;;;;;;;;;5003930;28;20218;-70
2022/06/03 03:28:48;;;;;;;4.47;4.07;;;;;;;;;;5006482;28;20322;-70
2022/06/03 03:31:24;;;;;;;3.93;3.63;;;;;;;;;;5007076;28;20206;-68
2022/06/03 03:34:08;;;;;;;3.83;3.00;;;;;;;;;;5010239;28;20246;-69
2022/06/03 03:36:52;;;;;;;3.43;3.13;;;;;;;;;;5013839;28;20214;-71
2022/06/03 03:39:47;;;;;;;3.67;3.30;;;;;;;;;;5005099;28;20191;-70
2022/06/03 03:42:22;;;;;;;3.50;3.20;;;;;;;;;;5006689;28;20226;-70
2022/06/03 03:44:57;;;;;;;3.90;3.20;;;;;;;;;;5007479;28;20187;-68
2022/06/03 03:47:26;;;;;;;2.70;2.50;;;;;;;;;;5009400;28;20230;-70
2022/06/03 03:50:10;;;;;;;3.13;2.83;;;;;;;;;;5011984;28;20196;-70
2022/06/03 03:52:58;;;;;;;2.87;2.67;;;;;;;;;;5007986;28;20183;-70
2022/06/03 03:55:39;;;;;;;2.60;2.40;;;;;;;;;;5008688;28;20261;-70
2022/06/03 03:58:18;;;;;;;2.90;2.50;;;;;;;;;;5007672;28;20281;-69
2022/06/03 04:00:44;;;;;;;2.60;2.40;;;;;;;;;;5007691;28;20190;-69
2022/06/03 04:03:13;;;;;;;2.70;2.50;;;;;;;;;;4992709;28;20191;-71
2022/06/03 04:05:48;;;;;;;2.80;2.60;;;;;;;;;;5006912;28;20192;-70
2022/06/03 04:08:17;;;;;;;3.60;3.03;;;;;;;;;;5007367;28;20221;-70
2022/06/03 04:11:02;;;;;;;2.67;2.47;;;;;;;;;;5021269;28;20646;-70
2022/06/03 04:13:46;;;;;;;2.77;2.57;;;;;;;;;;5008995;28;20652;-69
2022/06/03 04:16:24;;;;;;;3.83;2.70;;;;;;;;;;5007419;28;20230;-70
2022/06/03 04:18:53;;;;;;;3.30;3.00;;;;;;;;;;5007350;28;20188;-70
2022/06/03 04:21:38;;;;;;;2.77;2.57;;;;;;;;;;5006823;28;20266;-68
2022/06/03 04:24:42;;;;;;;3.23;2.90;;;;;;;;;;5011011;28;20214;-70
2022/06/03 04:27:28;;;;;;;3.43;3.10;;;;;;;;;;4951327;28;20279;-70
2022/06/03 04:30:13;;;;;;;3.77;3.47;;;;;;;;;;4939795;28;20197;-69
2022/06/03 04:32:59;;;;;;;3.83;3.53;;;;;;;;;;4999622;28;20191;-70
2022/06/03 04:35:34;;;;;;;3.93;3.63;;;;;;;;;;4977908;28;20197;-70
2022/06/03 04:38:06;;;;;;;4.20;3.90;;;;;;;;;;5010462;28;20206;-72
2022/06/03 04:40:45;;;;;;;4.60;3.70;;;;;;;;;;5010123;28;20184;-70
2022/06/03 04:43:30;;;;;;;4.20;3.90;;;;;;;;;;5011419;28;20365;-69
2022/06/03 04:46:08;;;;;;;4.37;4.07;;;;;;;;;;5011413;28;20542;-69
2022/06/03 04:49:06;;;;;;;3.67;3.43;;;;;;;;;;5006870;28;20732;-70
2022/06/03 04:51:51;;;;;;;3.87;3.57;;;;;;;;;;5009929;28;20195;-72
2022/06/03 04:54:23;;;;;;;4.70;4.30;;;;;;;;;;5008340;28;20187;-69
2022/06/03 04:56:58;;;;;;;4.10;3.43;;;;;;;;;;5012672;28;20227;-70
2022/06/03 04:59:36;;;;;;;3.63;2.90;;;;;;;;;;5006830;28;20217;-69
2022/06/03 05:02:20;;;;;;;2.40;2.20;;;;;;;;;;5006925;28;20192;-70
2022/06/03 05:04:52;;;;;;;2.22;2.10;;;;;;;;;;5012660;28;20187;-70
2022/06/03 05:07:43;;;;;;;2.30;2.10;;;;;;;;;;4990915;28;20559;-69
2022/06/03 05:10:27;;;;;;;1.90;1.80;;;;;;;;;;5017542;28;20184;-69
2022/06/03 05:13:12;;;;;;;1.95;1.77;;;;;;;;;;5020395;28;20274;-71
2022/06/03 05:15:38;;;;;;;2.45;2.20;;;;;;;;;;5006076;28;20624;-69
2022/06/03 05:18:23;;;;;;;2.03;1.90;;;;;;;;;;5007448;28;20214;-70
2022/06/03 05:20:51;;;;;;;2.33;1.80;;;;;;;;;;5006026;28;20482;-69
2022/06/03 05:23:36;;;;;;;1.70;1.60;;;;;;;;;;5013117;28;20229;-70
2022/06/03 05:26:05;;;;;;;1.98;1.88;;;;;;;;;;5017880;28;20191;-69
2022/06/03 05:28:38;;;;;;;1.70;1.60;;;;;;;;;;5008634;28;20243;-70
2022/06/03 05:31:15;;;;;;;2.30;2.10;;;;;;;;;;5012158;28;20184;-70
2022/06/03 05:33:50;;;;;;;1.73;1.63;;;;;;;;;;5006683;28;20190;-70
2022/06/03 05:36:32;;;;;;;1.73;1.63;;;;;;;;;;5005637;28;20234;-69
2022/06/03 05:39:16;;;;;;;1.75;1.58;;;;;;;;;;5011477;28;20187;-69
2022/06/03 05:44:45;;;;;;;1.70;1.60;;;;;;;;;;5005709;28;20673;-72
2022/06/03 05:47:16;;;;;;;1.70;1.60;;;;;;;;;;5011498;28;20308;-70
2022/06/03 05:49:57;;;;;;;2.88;2.08;;;;;;;;;;5011175;28;20647;-69
2022/06/03 05:52:38;;;;;;;1.90;1.80;;;;;;;;;;5005427;28;20211;-71
2022/06/03 05:55:22;;;;;;;2.00;1.90;;;;;;;;;;4990540;28;20191;-68
2022/06/03 05:58:03;;;;;;;1.70;1.60;;;;;;;;;;5007713;28;20246;-69
2022/06/03 06:00:35;;;;;;;1.85;1.70;;;;;;;;;;5009312;28;20664;-71
2022/06/03 06:03:21;;;;;;;2.17;1.98;;;;;;;;;;5010168;28;20459;-69
2022/06/03 06:06:06;;;;;;;2.08;1.90;;;;;;;;;;4987094;28;20195;-70
2022/06/03 06:08:51;;;;;;;1.80;1.40;;;;;;;;;;5005242;28;20518;-69
2022/06/03 06:11:28;;;;;;;1.55;1.45;;;;;;;;;;5005668;28;20237;-70
2022/06/03 06:14:09;;;;;;;1.83;1.65;;;;;;;;;;5019612;28;20187;-72
2022/06/03 06:16:42;;;;;;;1.63;1.52;;;;;;;;;;5005516;28;20203;-69
2022/06/03 06:19:35;;;;;;;2.05;1.83;;;;;;;;;;5009860;28;20237;-70
2022/06/03 06:22:19;;;;;;;1.67;1.58;;;;;;;;;;5003470;28;20655;-69
2022/06/03 06:24:52;;;;;;;1.45;1.35;;;;;;;;;;5015009;28;20260;-68
2022/06/03 06:27:30;;;;;;;1.80;1.70;;;;;;;;;;5015030;28;20746;-69
2022/06/03 06:30:08;;;;;;;2.50;1.70;;;;;;;;;;4999019;28;20178;-69
2022/06/03 06:32:50;;;;;;;1.75;1.65;;;;;;;;;;5010203;28;20679;-69
2022/06/03 06:35:35;;;;;;;2.05;1.65;;;;;;;;;;5008478;28;20198;-68
2022/06/03 06:38:01;;;;;;;2.30;1.70;;;;;;;;;;5016372;28;20210;-68
2022/06/03 06:40:37;;;;;;;1.70;1.60;;;;;;;;;;5015592;28;20195;-69
2022/06/03 06:43:09;;;;;;;2.08;1.50;;;;;;;;;;5016934;28;20179;-70
2022/06/03 06:45:41;;;;;;;1.40;1.30;;;;;;;;;;5009509;28;20190;-69
2022/06/03 06:48:15;;;;;;;1.70;1.33;;;;;;;;;;4998586;28;20277;-69
2022/06/03 06:51:03;;;;;;;1.60;1.50;;;;;;;;;;5012787;28;20561;-69
2022/06/03 06:53:35;;;;;;;1.40;1.30;;;;;;;;;;5013514;28;20175;-69
2022/06/03 06:56:10;;;;;;;1.60;1.50;;;;;;;;;;5013510;28;20188;-70
2022/06/03 06:58:42;;;;;;;1.60;1.50;;;;;;;;;;5007742;28;20638;-69
2022/06/03 07:01:08;;;;;;;2.85;2.15;;;;;;;;;;5010233;28;20683;-69
2022/06/03 07:03:47;;;;;;;1.45;1.35;;;;;;;;;;5004769;28;20639;-69
2022/06/03 07:06:14;;;;;;;1.50;1.40;;;;;;;;;;5002564;28;20575;-69
2022/06/03 07:08:53;;;;;;;1.50;1.30;;;;;;;;;;5010867;28;20203;-71
2022/06/03 07:11:26;;;;;;;1.80;1.13;;;;;;;;;;5008669;28;20665;-70
2022/06/03 07:13:55;;;;;;;1.65;1.30;;;;;;;;;;5014642;28;20182;-68
2022/06/03 07:19:49;;;;;;;1.38;1.27;;;;;;;;;;5016858;28;20224;-70
2022/06/03 07:22:24;;;;;;;1.35;1.25;;;;;;;;;;5005173;28;20191;-71
2022/06/03 07:24:56;;;;;;;1.63;1.40;;;;;;;;;;5006590;28;20258;-70
2022/06/03 07:27:31;;;;;;;1.60;1.50;;;;;;;;;;5010704;28;20408;-70
2022/06/03 07:30:01;;;;;;;3.03;1.50;;;;;;;;;;5008345;28;20609;-69
2022/06/03 07:32:29;;;;;;;1.58;1.30;;;;;;;;;;5012495;28;20584;-69
2022/06/03 07:34:58;;;;;;;1.60;1.50;;;;;;;;;;5020378;28;20443;-69
2022/06/03 07:37:27;;;;;;;1.60;1.50;;;;;;;;;;5009138;28;20662;-67
2022/06/03 07:40:16;;;;;;;1.77;1.60;;;;;;;;;;5010042;28;20617;-70
2022/06/03 07:42:58;;;;;;;1.70;1.60;;;;;;;;;;4968445;28;20964;-69
2022/06/03 07:45:33;;;;;;;4.00;1.70;;;;;;;;;;5011078;28;20191;-70
2022/06/03 07:47:59;;;;;;;1.80;1.70;;;;;;;;;;5013749;28;20313;-70
2022/06/03 07:50:26;;;;;;;1.58;1.48;;;;;;;;;;5014235;28;20187;-69
2022/06/03 07:52:55;;;;;;;1.60;1.50;;;;;;;;;;5015570;28;20650;-70
2022/06/03 07:55:23;;;;;;;2.90;1.70;;;;;;;;;;5011528;28;20183;-70
2022/06/03 07:57:58;;;;;;;1.63;1.52;;;;;;;;;;5011691;28;20230;-71
2022/06/03 08:00:25;;;;;;;1.80;1.65;;;;;;;;;;5013000;28;20643;-70
2022/06/03 08:03:01;;;;;;;1.85;1.73;;;;;;;;;;5012168;28;20186;-70
2022/06/03 08:05:27;;;;;;;1.98;1.75;;;;;;;;;;5011959;28;20229;-71
2022/06/03 08:10:56;;;;;;;1.50;1.40;;;;;;;;;;5011977;28;20190;-70
2022/06/03 08:13:22;;;;;;;1.85;1.40;;;;;;;;;;4999182;28;20237;-69
2022/06/03 08:15:53;;;;;;;2.17;1.58;;;;;;;;;;5015117;28;20745;-69
2022/06/03 08:18:20;;;;;;;1.65;1.55;;;;;;;;;;5017723;28;20516;-69
2022/06/03 08:20:48;;;;;;;2.00;1.80;;;;;;;;;;5014383;28;20939;-71
2022/06/03 08:23:15;;;;;;;2.03;1.80;;;;;;;;;;5013030;28;20186;-69
2022/06/03 08:25:42;;;;;;;1.65;1.55;;;;;;;;;;5001930;28;20524;-71
2022/06/03 08:28:12;;;;;;;1.88;1.77;;;;;;;;;;5017749;28;20211;-69
2022/06/03 08:30:39;;;;;;;1.95;1.83;;;;;;;;;;5017210;28;20179;-72
2022/06/03 08:33:06;;;;;;;1.77;1.60;;;;;;;;;;4999205;28;20282;-69
2022/06/03 08:35:35;;;;;;;2.55;1.92;;;;;;;;;;5015143;28;20669;-69
2022/06/03 08:38:09;;;;;;;1.60;1.50;;;;;;;;;;5019390;28;20316;-70
2022/06/03 08:40:49;;;;;;;2.05;1.88;;;;;;;;;;5021193;28;20265;-69
2022/06/03 08:43:41;;;;;;;1.77;1.67;;;;;;;;;;5009306;28;20270;-69
2022/06/03 08:46:16;;;;;;;3.05;1.70;;;;;;;;;;4996322;28;20726;-69
2022/06/03 08:48:47;;;;;;;1.73;1.50;;;;;;;;;;5017866;28;20565;-69
2022/06/03 08:51:20;;;;;;;2.20;1.50;;;;;;;;;;5020253;28;20198;-69
2022/06/03 08:53:50;;;;;;;1.92;1.45;;;;;;;;;;5018176;28;20215;-68
2022/06/03 08:56:18;;;;;;;1.75;1.38;;;;;;;;;;5019282;28;20241;-70
2022/06/03 08:58:55;;;;;;;1.80;1.70;;;;;;;;;;5002656;28;20183;-69
2022/06/03 09:01:39;;;;;;;2.28;1.90;;;;;;;;;;5021198;28;20186;-69
2022/06/03 09:04:22;;;;;;;1.90;1.80;;;;;;;;;;5002716;28;20779;-69
2022/06/03 09:06:51;;;;;;;1.88;1.77;;;;;;;;;;5022011;28;20211;-70
2022/06/03 09:09:25;;;;;;;2.25;2.05;;;;;;;;;;5010762;28;20184;-69
2022/06/03 09:12:16;;;;;;;2.15;1.60;;;;;;;;;;5006298;28;20171;-69
2022/06/03 09:14:46;;;;;;;2.05;1.88;;;;;;;;;;4967322;28;20726;-69
2022/06/03 09:17:26;;;;;;;1.55;1.42;;;;;;;;;;5019816;28;20208;-70
2022/06/03 09:20:06;;;;;;;1.88;1.70;;;;;;;;;;5021111;28;20183;-69
2022/06/03 09:22:32;;;;;;;1.90;1.63;;;;;;;;;;5003043;28;20178;-70
2022/06/03 09:24:59;;;;;;;1.98;1.80;;;;;;;;;;5023795;28;20202;-69
2022/06/03 09:27:58;;;;;;;1.50;1.40;;;;;;;;;;4988368;28;20212;-69
2022/06/03 09:31:05;;;;;;;3.03;1.80;;;;;;;;;;4966772;28;20185;-68
2022/06/03 09:33:35;;;;;;;2.30;2.10;;;;;;;;;;4997537;28;20214;-70
2022/06/03 09:39:28;;;;;;;3.17;1.70;;;;;;;;;;4994728;28;20319;-69
2022/06/03 09:42:26;;;;;;;1.60;1.50;;;;;;;;;;4943086;29;20186;-69
2022/06/03 09:45:20;;;;;;;1.88;1.77;;;;;;;;;;5016755;28;20207;-68
2022/06/03 09:48:10;;;;;;;2.85;1.55;;;;;;;;;;5003539;28;20576;-69
2022/06/03 09:50:36;;;;;;;2.15;1.70;;;;;;;;;;5029738;28;20233;-69
2022/06/03 09:53:36;;;;;;;2.10;1.42;;;;;;;;;;5020838;28;20179;-68
2022/06/03 09:59:06;;;;;;;1.70;1.60;;;;;;;;;;5017579;28;20182;-70
2022/06/03 10:13:02;;;;;;;1.55;1.30;;;;;;;;;;5011430;28;20194;-81
2022/06/03 10:15:38;;;;;;;2.20;1.50;;;;;;;;;;5021684;28;20187;-82
2022/06/03 10:18:22;;;;;;;2.55;1.45;;;;;;;;;;5026451;28;20190;-83
2022/06/03 10:20:49;;;;;;;1.90;1.60;;;;;;;;;;5022393;28;20740;-82
2022/06/03 10:23:15;;;;;;;1.58;1.48;;;;;;;;;;5009347;28;20187;-81
2022/06/03 10:25:43;;;;;;;2.58;1.50;;;;;;;;;;5020076;28;20207;-83
2022/06/03 10:28:09;;;;;;;1.50;1.40;;;;;;;;;;5022209;28;20279;-79
2022/06/03 10:30:37;;;;;;;1.15;1.15;;;;;;;;;;5011161;28;20653;-81
2022/06/03 10:33:05;;;;;;;1.40;1.30;;;;;;;;;;5022283;28;20216;-82
2022/06/03 10:35:37;;;;;;;1.40;1.30;;;;;;;;;;5016893;28;20202;-83
2022/06/03 10:38:04;;;;;;;1.30;1.20;;;;;;;;;;5022290;28;20183;-82
2022/06/03 10:40:31;;;;;;;1.48;1.38;;;;;;;;;;5011961;28;20939;-82
2022/06/03 10:42:59;;;;;;;1.50;1.40;;;;;;;;;;5024784;28;20244;-82
2022/06/03 10:45:26;;;;;;;2.28;1.50;;;;;;;;;;5024035;28;20195;-83
2022/06/03 10:47:52;;;;;;;2.22;1.70;;;;;;;;;;5024997;28;20241;-83
2022/06/03 10:50:27;;;;;;;1.48;1.38;;;;;;;;;;5022981;28;20207;-83
2022/06/03 11:01:31;;;;;;;1.50;1.30;;;;;;;;;;5024679;28;20245;-83
2022/06/03 11:03:58;;;;;;;1.70;1.60;;;;;;;;;;5012039;28;20741;-83
2022/06/03 11:06:25;;;;;;;1.48;1.38;;;;;;;;;;5023695;28;20210;-82
2022/06/03 11:08:59;;;;;;;1.52;1.40;;;;;;;;;;5037030;28;20627;-83
2022/06/03 11:11:33;;;;;;;1.38;1.20;;;;;;;;;;5029109;28;20501;-83
2022/06/03 11:14:19;;;;;;;1.50;1.40;;;;;;;;;;5012093;28;20186;-82
2022/06/03 11:16:49;;;;;;;1.50;1.40;;;;;;;;;;5020971;28;20210;-82
2022/06/03 11:19:19;;;;;;;1.60;1.50;;;;;;;;;;5030559;28;20197;-83
2022/06/03 11:21:45;;;;;;;1.70;1.60;;;;;;;;;;5038964;28;20186;-83
2022/06/03 11:24:12;;;;;;;1.60;1.50;;;;;;;;;;5024759;28;20178;-83
2022/06/03 11:26:40;;;;;;;1.48;1.23;;;;;;;;;;5030550;28;20207;-84
2022/06/03 11:29:12;;;;;;;2.05;1.25;;;;;;;;;;5027821;28;20524;-83
2022/06/03 11:31:42;;;;;;;1.90;1.20;;;;;;;;;;5024601;28;20193;-83
2022/06/03 11:34:17;;;;;;;1.20;1.10;;;;;;;;;;5024534;28;20228;-83
2022/06/03 11:37:03;;;;;;;1.67;1.58;;;;;;;;;;5022582;28;20209;-82
2022/06/03 11:39:41;;;;;;;1.42;1.33;;;;;;;;;;5021772;28;20764;-83
2022/06/03 11:42:10;;;;;;;2.25;1.48;;;;;;;;;;5024596;28;20249;-83
2022/06/03 11:44:50;;;;;;;1.58;1.20;;;;;;;;;;5033516;28;20174;-81
2022/06/03 11:47:20;;;;;;;2.05;1.35;;;;;;;;;;5023253;28;20217;-83
2022/06/03 11:49:46;;;;;;;1.40;1.30;;;;;;;;;;5030542;28;20182;-83
2022/06/03 11:52:13;;;;;;;1.20;1.10;;;;;;;;;;5023594;28;20567;-81
2022/06/03 11:54:40;;;;;;;1.38;1.17;;;;;;;;;;5026269;28;20258;-81
2022/06/03 11:57:07;;;;;;;1.50;1.40;;;;;;;;;;5024335;28;20207;-82
2022/06/03 11:59:52;;;;;;;1.50;1.25;;;;;;;;;;5021958;28;20270;-80
2022/06/03 12:02:38;;;;;;;1.50;1.40;;;;;;;;;;5032618;28;20243;-82
2022/06/03 12:05:05;;;;;;;1.00;0.93;;;;;;;;;;5017566;28;20182;-83
2022/06/03 12:07:31;;;;;;;1.42;1.05;;;;;;;;;;5025077;28;20464;-83
2022/06/03 12:10:22;;;;;;;1.35;1.25;;;;;;;;;;5016655;28;20205;-82
2022/06/03 12:15:38;;;;;;;0.98;0.90;;;;;;;;;;5042562;28;20279;-83
2022/06/03 12:18:07;;;;;;;1.00;1.00;;;;;;;;;;5031659;28;20244;-85
2022/06/03 12:20:50;;;;;;;1.40;1.27;;;;;;;;;;5029592;28;20641;-85
2022/06/03 12:23:16;;;;;;;1.10;1.00;;;;;;;;;;5036236;28;20189;-83
2022/06/03 12:25:45;;;;;;;1.27;1.20;;;;;;;;;;5014015;28;20199;-84
2022/06/03 12:28:18;;;;;;;1.25;1.15;;;;;;;;;;5025239;28;20202;-82
2022/06/03 12:30:47;;;;;;;1.23;1.05;;;;;;;;;;5025180;28;20179;-85
2022/06/03 12:33:25;;;;;;;1.10;0.98;;;;;;;;;;5024924;28;20548;-82
2022/06/03 12:35:53;;;;;;;0.90;0.90;;;;;;;;;;5028230;28;20264;-82
2022/06/03 12:38:23;;;;;;;2.90;1.15;;;;;;;;;;5026409;28;20193;-81
2022/06/03 12:41:07;;;;;;;2.22;1.10;;;;;;;;;;5021174;28;20390;-83
2022/06/03 12:43:54;;;;;;;1.10;1.10;;;;;;;;;;5024740;28;20186;-82
2022/06/03 12:46:39;;;;;;;1.80;1.38;;;;;;;;;;5035573;28;20293;-82
2022/06/03 12:49:16;;;;;;;1.20;1.20;;;;;;;;;;5023727;28;20684;-81
2022/06/03 12:52:01;;;;;;;1.10;1.00;;;;;;;;;;5031929;28;20171;-82
2022/06/03 12:54:27;;;;;;;1.65;1.20;;;;;;;;;;5015767;28;20187;-82
2022/06/03 12:57:05;;;;;;;1.20;1.10;;;;;;;;;;5026567;28;20840;-83
2022/06/03 12:59:52;;;;;;;1.10;1.00;;;;;;;;;;5026619;28;20182;-81
2022/06/03 13:02:23;;;;;;;1.10;1.10;;;;;;;;;;5009565;28;20277;-80
2022/06/03 13:04:55;;;;;;;1.17;1.10;;;;;;;;;;5026228;28;20191;-81
2022/06/03 13:07:21;;;;;;;1.00;1.00;;;;;;;;;;5025645;28;20218;-83
2022/06/03 13:09:53;;;;;;;1.30;1.20;;;;;;;;;;5021315;28;20329;-82
2022/06/03 13:12:29;;;;;;;1.98;1.00;;;;;;;;;;5025226;28;20879;-80
2022/06/03 13:14:56;;;;;;;1.40;1.10;;;;;;;;;;5023083;28;20221;-82
2022/06/03 13:17:40;;;;;;;2.17;1.25;;;;;;;;;;5025293;28;20615;-82
2022/06/03 13:20:06;;;;;;;0.93;0.90;;;;;;;;;;5026677;28;20204;-81
2022/06/03 13:22:47;;;;;;;1.35;1.10;;;;;;;;;;5031098;28;20183;-83
2022/06/03 13:25:16;;;;;;;1.33;1.10;;;;;;;;;;5033189;28;20186;-81
2022/06/03 13:28:02;;;;;;;1.48;1.38;;;;;;;;;;5023162;28;20681;-82
2022/06/03 13:30:36;;;;;;;2.05;1.10;;;;;;;;;;5028668;28;20187;-82
2022/06/03 13:33:13;;;;;;;1.35;1.10;;;;;;;;;;5016415;28;20186;-82
2022/06/03 13:35:57;;;;;;;1.50;1.40;;;;;;;;;;5027759;28;20664;-82
2022/06/03 13:38:27;;;;;;;1.75;1.20;;;;;;;;;;5031909;28;20227;-83
2022/06/03 13:44:09;;;;;;;1.10;1.10;;;;;;;;;;5030460;28;20235;-82
2022/06/03 13:46:35;;;;;;;1.30;1.20;;;;;;;;;;5025609;28;20201;-84
2022/06/03 13:49:05;;;;;;;1.90;1.33;;;;;;;;;;5025460;28;20205;-82
2022/06/03 13:51:47;;;;;;;0.90;0.90;;;;;;;;;;5023004;28;20186;-82
2022/06/03 13:54:24;;;;;;;1.20;1.10;;;;;;;;;;5030564;28;20178;-82
2022/06/03 13:56:55;;;;;;;1.10;1.00;;;;;;;;;;5037856;28;20680;-82
2022/06/03 13:59:21;;;;;;;0.80;0.80;;;;;;;;;;5022587;28;20198;-83
2022/06/03 14:01:52;;;;;;;1.15;1.05;;;;;;;;;;5035582;28;20179;-82
2022/06/03 14:04:20;;;;;;;0.93;0.93;;;;;;;;;;5032877;28;20197;-82
2022/06/03 14:07:15;;;;;;;1.08;1.08;;;;;;;;;;5024491;28;20205;-82
2022/06/03 14:09:49;;;;;;;1.10;0.88;;;;;;;;;;4991289;28;20668;-83
2022/06/03 14:12:21;;;;;;;1.10;1.10;;;;;;;;;;5033682;28;20190;-82
2022/06/03 14:15:06;;;;;;;1.00;1.00;;;;;;;;;;5031176;28;20921;-81
2022/06/03 14:17:34;;;;;;;2.15;1.38;;;;;;;;;;5034845;28;20747;-83
2022/06/03 14:20:15;;;;;;;0.95;0.95;;;;;;;;;;5027328;28;20199;-83
2022/06/03 14:22:48;;;;;;;1.45;1.10;;;;;;;;;;5028468;28;20627;-83
2022/06/03 14:25:20;;;;;;;2.55;1.10;;;;;;;;;;5024848;28;20194;-82
2022/06/03 14:28:06;;;;;;;0.90;0.90;;;;;;;;;;5007265;28;20225;-80
2022/06/03 14:30:35;;;;;;;1.35;1.25;;;;;;;;;;5022523;28;20190;-83
2022/06/03 14:33:01;;;;;;;1.30;1.00;;;;;;;;;;5023114;28;20656;-83
2022/06/03 14:35:30;;;;;;;1.30;1.20;;;;;;;;;;5023195;28;20182;-79
2022/06/03 14:38:19;;;;;;;1.00;1.00;;;;;;;;;;5025133;28;20189;-81
2022/06/03 14:40:47;;;;;;;1.10;1.00;;;;;;;;;;5003547;28;20190;-83
2022/06/03 14:43:16;;;;;;;1.25;1.13;;;;;;;;;;5025128;28;20186;-83
2022/06/03 14:45:48;;;;;;;1.60;1.08;;;;;;;;;;5013343;28;20616;-81
2022/06/03 14:48:17;;;;;;;0.90;0.90;;;;;;;;;;5040625;28;20209;-82
2022/06/03 14:50:47;;;;;;;1.08;1.00;;;;;;;;;;5034378;28;20175;-82
2022/06/03 14:53:31;;;;;;;1.00;1.00;;;;;;;;;;5036609;28;20190;-81
2022/06/03 14:56:02;;;;;;;0.95;0.95;;;;;;;;;;5024430;28;20206;-83
2022/06/03 14:58:32;;;;;;;1.20;1.10;;;;;;;;;;5022720;28;20281;-85
2022/06/03 15:01:03;;;;;;;1.20;1.00;;;;;;;;;;5034407;28;20185;-83
2022/06/03 15:03:29;;;;;;;1.98;1.30;;;;;;;;;;5036848;28;20259;-83
2022/06/03 15:05:57;;;;;;;1.92;1.15;;;;;;;;;;5030681;28;20214;-80
2022/06/03 15:08:28;;;;;;;1.25;1.20;;;;;;;;;;5021420;28;20716;-81
2022/06/03 15:11:09;;;;;;;1.25;1.08;;;;;;;;;;5023751;28;20182;-83
2022/06/03 15:13:36;;;;;;;1.20;1.10;;;;;;;;;;5031340;28;20205;-81
2022/06/03 15:16:02;;;;;;;1.85;1.17;;;;;;;;;;5023738;28;20573;-83
2022/06/03 15:18:28;;;;;;;1.00;1.00;;;;;;;;;;5022562;28;20733;-79
2022/06/03 15:21:21;;;;;;;2.50;1.65;;;;;;;;;;5026386;28;20187;-82
2022/06/03 15:23:49;;;;;;;0.98;0.95;;;;;;;;;;5032946;28;20199;-82
2022/06/03 15:26:17;;;;;;;1.63;0.85;;;;;;;;;;5021648;28;20214;-82
2022/06/03 15:28:48;;;;;;;1.27;1.05;;;;;;;;;;5022881;28;20202;-83
2022/06/03 15:31:19;;;;;;;1.08;1.08;;;;;;;;;;5028535;28;20178;-81
2022/06/03 15:33:50;;;;;;;1.10;1.00;;;;;;;;;;5030110;28;20175;-83
2022/06/03 15:36:17;;;;;;;1.17;1.08;;;;;;;;;;5012466;28;20297;-82
2022/06/03 15:38:44;;;;;;;1.00;1.00;;;;;;;;;;5034164;28;20277;-82
2022/06/03 15:41:12;;;;;;;1.20;1.13;;;;;;;;;;5028745;28;20304;-82
2022/06/03 15:43:43;;;;;;;1.00;1.00;;;;;;;;;;5026203;28;20656;-83
2022/06/03 15:46:10;;;;;;;1.17;1.08;;;;;;;;;;5028341;28;20248;-82
2022/06/03 15:48:50;;;;;;;1.20;1.10;;;;;;;;;;5024979;28;20704;-83
2022/06/03 15:51:18;;;;;;;1.55;1.17;;;;;;;;;;5025016;28;20450;-82
2022/06/03 15:53:52;;;;;;;1.33;1.00;;;;;;;;;;5026559;28;20175;-80
2022/06/03 15:56:19;;;;;;;1.30;1.20;;;;;;;;;;5027350;28;20264;-83
2022/06/03 15:58:54;;;;;;;2.33;1.10;;;;;;;;;;5020411;28;20187;-83
2022/06/03 16:01:26;;;;;;;1.88;1.25;;;;;;;;;;5034396;28;20186;-83
2022/06/03 16:03:58;;;;;;;1.20;1.10;;;;;;;;;;5037032;28;20611;-82
2022/06/03 16:06:35;;;;;;;1.30;1.15;;;;;;;;;;5021645;28;20218;-82
2022/06/03 16:09:06;;;;;;;1.20;1.10;;;;;;;;;;5030579;28;20212;-81
2022/06/03 16:11:37;;;;;;;1.38;1.20;;;;;;;;;;5013479;28;20703;-82